sensor_id;sensor_type;location;lat;lon;timestamp;temperature;humidity
15930;DHT22;8064;51.142;4.780;2023-03-01T00:02:17;2.40;68.90
15930;DHT22;8064;51.142;4.780;2023-03-01T00:04:43;2.40;69.10
15930;DHT22;8064;51.142;4.780;2023-03-01T00:07:09;2.40;69.10
15930;DHT22;8064;51.142;4.780;2023-03-01T00:09:36;2.40;69.20
15930;DHT22;8064;51.142;4.780;2023-03-01T00:12:02;2.40;69.40
15930;DHT22;8064;51.142;4.780;2023-03-01T00:14:28;2.30;69.30
15930;DHT22;8064;51.142;4.780;2023-03-01T00:16:54;2.30;69.40
15930;DHT22;8064;51.142;4.780;2023-03-01T00:19:20;2.30;69.40
15930;DHT22;8064;51.142;4.780;2023-03-01T00:21:47;2.30;69.50
15930;DHT22;8064;51.142;4.780;2023-03-01T00:24:14;2.30;69.60
15930;DHT22;8064;51.142;4.780;2023-03-01T00:26:40;2.30;69.70
15930;DHT22;8064;51.142;4.780;2023-03-01T00:29:06;2.20;69.60
15930;DHT22;8064;51.142;4.780;2023-03-01T00:31:33;2.20;69.80
15930;DHT22;8064;51.142;4.780;2023-03-01T00:34:02;2.10;69.90
15930;DHT22;8064;51.142;4.780;2023-03-01T00:36:31;2.10;70.10
15930;DHT22;8064;51.142;4.780;2023-03-01T00:38:57;2.10;70.30
15930;DHT22;8064;51.142;4.780;2023-03-01T00:41:23;2.10;70.40
15930;DHT22;8064;51.142;4.780;2023-03-01T00:43:50;2.00;70.50
15930;DHT22;8064;51.142;4.780;2023-03-01T00:46:18;2.00;70.60
15930;DHT22;8064;51.142;4.780;2023-03-01T00:48:44;2.00;70.70
15930;DHT22;8064;51.142;4.780;2023-03-01T00:51:13;2.00;70.80
15930;DHT22;8064;51.142;4.780;2023-03-01T00:53:40;2.00;70.90
15930;DHT22;8064;51.142;4.780;2023-03-01T00:56:07;2.00;71.00
15930;DHT22;8064;51.142;4.780;2023-03-01T00:58:34;2.00;71.10
15930;DHT22;8064;51.142;4.780;2023-03-01T01:01:00;2.00;71.20
15930;DHT22;8064;51.142;4.780;2023-03-01T01:03:27;2.00;71.20
15930;DHT22;8064;51.142;4.780;2023-03-01T01:05:54;2.00;71.30
15930;DHT22;8064;51.142;4.780;2023-03-01T01:08:20;1.90;71.30
15930;DHT22;8064;51.142;4.780;2023-03-01T01:10:46;1.90;71.40
15930;DHT22;8064;51.142;4.780;2023-03-01T01:13:13;1.90;71.50
15930;DHT22;8064;51.142;4.780;2023-03-01T01:15:39;1.90;71.60
15930;DHT22;8064;51.142;4.780;2023-03-01T01:18:06;1.80;71.60
15930;DHT22;8064;51.142;4.780;2023-03-01T01:20:32;1.80;71.70
15930;DHT22;8064;51.142;4.780;2023-03-01T01:22:57;1.80;71.90
15930;DHT22;8064;51.142;4.780;2023-03-01T01:25:23;1.80;72.00
15930;DHT22;8064;51.142;4.780;2023-03-01T01:27:51;1.80;72.10
15930;DHT22;8064;51.142;4.780;2023-03-01T01:30:17;1.80;72.20
15930;DHT22;8064;51.142;4.780;2023-03-01T01:32:43;1.80;72.20
15930;DHT22;8064;51.142;4.780;2023-03-01T01:35:08;1.80;72.30
15930;DHT22;8064;51.142;4.780;2023-03-01T01:37:34;1.70;72.30
15930;DHT22;8064;51.142;4.780;2023-03-01T01:40:01;1.70;72.40
15930;DHT22;8064;51.142;4.780;2023-03-01T01:42:29;1.70;72.50
15930;DHT22;8064;51.142;4.780;2023-03-01T01:45:26;1.70;72.50
15930;DHT22;8064;51.142;4.780;2023-03-01T01:47:53;1.70;72.80
15930;DHT22;8064;51.142;4.780;2023-03-01T01:50:20;1.70;72.60
15930;DHT22;8064;51.142;4.780;2023-03-01T01:52:48;1.70;72.70
15930;DHT22;8064;51.142;4.780;2023-03-01T01:55:18;1.70;72.80
15930;DHT22;8064;51.142;4.780;2023-03-01T01:57:50;1.70;72.90
15930;DHT22;8064;51.142;4.780;2023-03-01T02:00:20;1.70;72.90
15930;DHT22;8064;51.142;4.780;2023-03-01T02:02:48;1.70;73.00
15930;DHT22;8064;51.142;4.780;2023-03-01T02:05:31;1.70;73.00
15930;DHT22;8064;51.142;4.780;2023-03-01T02:07:59;1.70;73.30
15930;DHT22;8064;51.142;4.780;2023-03-01T02:10:25;1.60;73.10
15930;DHT22;8064;51.142;4.780;2023-03-01T02:12:53;1.60;73.10
15930;DHT22;8064;51.142;4.780;2023-03-01T02:15:19;1.60;73.30
15930;DHT22;8064;51.142;4.780;2023-03-01T02:17:46;1.50;73.30
15930;DHT22;8064;51.142;4.780;2023-03-01T02:20:33;1.50;73.50
15930;DHT22;8064;51.142;4.780;2023-03-01T02:23:00;1.50;73.80
15930;DHT22;8064;51.142;4.780;2023-03-01T02:28:42;1.40;74.00
15930;DHT22;8064;51.142;4.780;2023-03-01T02:31:10;1.40;74.10
15930;DHT22;8064;51.142;4.780;2023-03-01T02:33:56;1.30;74.00
15930;DHT22;8064;51.142;4.780;2023-03-01T02:36:25;1.30;74.10
15930;DHT22;8064;51.142;4.780;2023-03-01T02:38:57;1.30;74.30
15930;DHT22;8064;51.142;4.780;2023-03-01T02:41:26;1.20;74.40
15930;DHT22;8064;51.142;4.780;2023-03-01T02:43:54;1.20;74.50
15930;DHT22;8064;51.142;4.780;2023-03-01T02:46:24;1.20;74.70
15930;DHT22;8064;51.142;4.780;2023-03-01T02:48:53;1.20;74.90
15930;DHT22;8064;51.142;4.780;2023-03-01T02:54:13;1.10;75.00
15930;DHT22;8064;51.142;4.780;2023-03-01T02:56:41;1.10;75.10
15930;DHT22;8064;51.142;4.780;2023-03-01T02:59:09;1.10;75.10
15930;DHT22;8064;51.142;4.780;2023-03-01T03:01:35;1.10;75.20
15930;DHT22;8064;51.142;4.780;2023-03-01T03:04:04;1.10;75.30
15930;DHT22;8064;51.142;4.780;2023-03-01T03:06:30;1.00;75.30
15930;DHT22;8064;51.142;4.780;2023-03-01T03:08:55;1.00;75.50
15930;DHT22;8064;51.142;4.780;2023-03-01T03:11:21;1.00;75.60
15930;DHT22;8064;51.142;4.780;2023-03-01T03:13:47;1.00;75.70
15930;DHT22;8064;51.142;4.780;2023-03-01T03:16:14;1.00;75.90
15930;DHT22;8064;51.142;4.780;2023-03-01T03:18:40;0.90;75.90
15930;DHT22;8064;51.142;4.780;2023-03-01T03:21:21;0.90;76.00
15930;DHT22;8064;51.142;4.780;2023-03-01T03:23:47;0.90;76.30
15930;DHT22;8064;51.142;4.780;2023-03-01T03:26:12;0.90;76.20
15930;DHT22;8064;51.142;4.780;2023-03-01T03:28:40;0.90;76.40
15930;DHT22;8064;51.142;4.780;2023-03-01T03:31:07;0.90;76.50
15930;DHT22;8064;51.142;4.780;2023-03-01T03:33:33;0.90;76.70
15930;DHT22;8064;51.142;4.780;2023-03-01T03:35:59;0.90;76.80
15930;DHT22;8064;51.142;4.780;2023-03-01T03:38:25;0.90;77.00
15930;DHT22;8064;51.142;4.780;2023-03-01T03:41:00;0.90;77.00
15930;DHT22;8064;51.142;4.780;2023-03-01T03:43:28;0.90;77.30
15930;DHT22;8064;51.142;4.780;2023-03-01T03:45:54;0.80;77.20
15930;DHT22;8064;51.142;4.780;2023-03-01T03:48:20;0.80;77.30
15930;DHT22;8064;51.142;4.780;2023-03-01T03:50:50;0.80;77.50
15930;DHT22;8064;51.142;4.780;2023-03-01T03:53:16;0.80;77.60
15930;DHT22;8064;51.142;4.780;2023-03-01T03:55:42;0.80;77.60
15930;DHT22;8064;51.142;4.780;2023-03-01T03:58:10;0.80;77.70
15930;DHT22;8064;51.142;4.780;2023-03-01T04:00:38;0.80;77.70
15930;DHT22;8064;51.142;4.780;2023-03-01T04:03:05;0.80;77.80
15930;DHT22;8064;51.142;4.780;2023-03-01T04:05:31;0.80;77.90
15930;DHT22;8064;51.142;4.780;2023-03-01T04:07:58;0.80;78.00
15930;DHT22;8064;51.142;4.780;2023-03-01T04:10:37;0.80;78.00
15930;DHT22;8064;51.142;4.780;2023-03-01T04:13:05;0.80;78.10
15930;DHT22;8064;51.142;4.780;2023-03-01T04:15:33;0.80;78.20
15930;DHT22;8064;51.142;4.780;2023-03-01T04:17:59;0.80;78.30
15930;DHT22;8064;51.142;4.780;2023-03-01T04:20:28;0.80;78.40
15930;DHT22;8064;51.142;4.780;2023-03-01T04:23:10;0.80;78.50
15930;DHT22;8064;51.142;4.780;2023-03-01T04:25:44;0.80;78.70
15930;DHT22;8064;51.142;4.780;2023-03-01T04:28:10;0.80;78.60
15930;DHT22;8064;51.142;4.780;2023-03-01T04:30:37;0.70;78.50
15930;DHT22;8064;51.142;4.780;2023-03-01T04:33:05;0.80;78.80
15930;DHT22;8064;51.142;4.780;2023-03-01T04:35:32;0.70;78.80
15930;DHT22;8064;51.142;4.780;2023-03-01T04:37:58;0.70;78.90
15930;DHT22;8064;51.142;4.780;2023-03-01T04:40:24;0.80;79.10
15930;DHT22;8064;51.142;4.780;2023-03-01T04:42:50;0.70;79.10
15930;DHT22;8064;51.142;4.780;2023-03-01T04:45:16;0.70;79.10
15930;DHT22;8064;51.142;4.780;2023-03-01T04:47:43;0.70;79.20
15930;DHT22;8064;51.142;4.780;2023-03-01T04:50:12;0.70;79.40
15930;DHT22;8064;51.142;4.780;2023-03-01T04:52:38;0.60;79.40
15930;DHT22;8064;51.142;4.780;2023-03-01T04:55:04;0.70;79.60
15930;DHT22;8064;51.142;4.780;2023-03-01T04:57:30;0.60;79.60
15930;DHT22;8064;51.142;4.780;2023-03-01T04:59:57;0.60;79.70
15930;DHT22;8064;51.142;4.780;2023-03-01T05:02:23;0.60;79.80
15930;DHT22;8064;51.142;4.780;2023-03-01T05:04:49;0.60;79.90
15930;DHT22;8064;51.142;4.780;2023-03-01T05:07:14;0.60;80.00
15930;DHT22;8064;51.142;4.780;2023-03-01T05:09:46;0.60;80.10
15930;DHT22;8064;51.142;4.780;2023-03-01T05:12:12;0.60;80.30
15930;DHT22;8064;51.142;4.780;2023-03-01T05:14:39;0.50;80.20
15930;DHT22;8064;51.142;4.780;2023-03-01T05:17:05;0.50;81.00
15930;DHT22;8064;51.142;4.780;2023-03-01T05:19:31;0.50;80.40
15930;DHT22;8064;51.142;4.780;2023-03-01T05:21:57;0.50;80.50
15930;DHT22;8064;51.142;4.780;2023-03-01T05:24:34;0.50;80.50
15930;DHT22;8064;51.142;4.780;2023-03-01T05:27:02;0.50;80.60
15930;DHT22;8064;51.142;4.780;2023-03-01T05:29:30;0.50;80.70
15930;DHT22;8064;51.142;4.780;2023-03-01T05:31:58;0.50;80.70
15930;DHT22;8064;51.142;4.780;2023-03-01T05:34:28;0.50;80.80
15930;DHT22;8064;51.142;4.780;2023-03-01T05:36:54;0.50;80.90
15930;DHT22;8064;51.142;4.780;2023-03-01T05:39:21;0.50;80.90
15930;DHT22;8064;51.142;4.780;2023-03-01T05:41:48;0.50;80.90
15930;DHT22;8064;51.142;4.780;2023-03-01T05:44:17;0.50;81.00
15930;DHT22;8064;51.142;4.780;2023-03-01T05:46:43;0.50;81.10
15930;DHT22;8064;51.142;4.780;2023-03-01T05:49:08;0.50;81.20
15930;DHT22;8064;51.142;4.780;2023-03-01T05:51:34;0.50;81.30
15930;DHT22;8064;51.142;4.780;2023-03-01T05:54:00;0.50;81.40
15930;DHT22;8064;51.142;4.780;2023-03-01T05:56:26;0.50;81.40
15930;DHT22;8064;51.142;4.780;2023-03-01T05:58:51;0.40;81.40
15930;DHT22;8064;51.142;4.780;2023-03-01T06:01:17;0.40;81.50
15930;DHT22;8064;51.142;4.780;2023-03-01T06:03:43;0.40;81.50
15930;DHT22;8064;51.142;4.780;2023-03-01T06:06:08;0.40;81.60
15930;DHT22;8064;51.142;4.780;2023-03-01T06:08:34;0.50;81.80
15930;DHT22;8064;51.142;4.780;2023-03-01T06:11:04;0.50;81.80
15930;DHT22;8064;51.142;4.780;2023-03-01T06:13:30;0.50;81.80
15930;DHT22;8064;51.142;4.780;2023-03-01T06:15:56;0.50;81.80
15930;DHT22;8064;51.142;4.780;2023-03-01T06:18:22;0.50;81.70
15930;DHT22;8064;51.142;4.780;2023-03-01T06:20:55;0.50;81.80
15930;DHT22;8064;51.142;4.780;2023-03-01T06:23:22;0.50;81.80
15930;DHT22;8064;51.142;4.780;2023-03-01T06:25:48;0.50;81.80
15930;DHT22;8064;51.142;4.780;2023-03-01T06:28:13;0.50;81.80
15930;DHT22;8064;51.142;4.780;2023-03-01T06:30:39;0.40;81.70
15930;DHT22;8064;51.142;4.780;2023-03-01T06:33:05;0.40;81.70
15930;DHT22;8064;51.142;4.780;2023-03-01T06:35:31;0.40;81.80
15930;DHT22;8064;51.142;4.780;2023-03-01T06:37:59;0.40;81.90
15930;DHT22;8064;51.142;4.780;2023-03-01T06:40:25;0.40;82.00
15930;DHT22;8064;51.142;4.780;2023-03-01T06:42:51;0.40;82.10
15930;DHT22;8064;51.142;4.780;2023-03-01T06:45:19;0.40;82.20
15930;DHT22;8064;51.142;4.780;2023-03-01T06:47:45;0.40;82.20
15930;DHT22;8064;51.142;4.780;2023-03-01T06:50:11;0.40;82.20
15930;DHT22;8064;51.142;4.780;2023-03-01T06:52:37;0.50;82.30
15930;DHT22;8064;51.142;4.780;2023-03-01T06:55:04;0.50;82.30
15930;DHT22;8064;51.142;4.780;2023-03-01T06:57:30;0.50;82.30
15930;DHT22;8064;51.142;4.780;2023-03-01T06:59:55;0.60;82.30
15930;DHT22;8064;51.142;4.780;2023-03-01T07:02:21;0.70;82.40
15930;DHT22;8064;51.142;4.780;2023-03-01T07:04:49;0.80;82.50
15930;DHT22;8064;51.142;4.780;2023-03-01T07:07:16;0.80;82.50
15930;DHT22;8064;51.142;4.780;2023-03-01T07:09:44;1.00;82.50
15930;DHT22;8064;51.142;4.780;2023-03-01T07:12:10;1.10;82.50
15930;DHT22;8064;51.142;4.780;2023-03-01T07:14:35;1.20;82.50
15930;DHT22;8064;51.142;4.780;2023-03-01T07:17:01;1.30;82.50
15930;DHT22;8064;51.142;4.780;2023-03-01T07:19:28;1.50;82.40
15930;DHT22;8064;51.142;4.780;2023-03-01T07:21:54;1.60;82.30
15930;DHT22;8064;51.142;4.780;2023-03-01T07:24:21;1.70;82.20
15930;DHT22;8064;51.142;4.780;2023-03-01T07:26:50;1.80;82.00
15930;DHT22;8064;51.142;4.780;2023-03-01T07:29:16;1.90;81.90
15930;DHT22;8064;51.142;4.780;2023-03-01T07:31:41;2.10;82.00
15930;DHT22;8064;51.142;4.780;2023-03-01T07:34:07;2.20;81.90
15930;DHT22;8064;51.142;4.780;2023-03-01T07:36:33;2.30;81.70
15930;DHT22;8064;51.142;4.780;2023-03-01T07:38:59;2.50;81.70
15930;DHT22;8064;51.142;4.780;2023-03-01T07:41:27;2.70;81.60
15930;DHT22;8064;51.142;4.780;2023-03-01T07:43:53;2.80;81.30
15930;DHT22;8064;51.142;4.780;2023-03-01T07:46:19;3.00;81.30
15930;DHT22;8064;51.142;4.780;2023-03-01T07:48:45;3.10;81.00
15930;DHT22;8064;51.142;4.780;2023-03-01T07:51:11;3.30;80.90
15930;DHT22;8064;51.142;4.780;2023-03-01T07:53:37;3.50;80.60
15930;DHT22;8064;51.142;4.780;2023-03-01T07:56:06;3.60;80.30
15930;DHT22;8064;51.142;4.780;2023-03-01T07:58:35;3.70;80.10
15930;DHT22;8064;51.142;4.780;2023-03-01T08:01:03;3.90;79.90
15930;DHT22;8064;51.142;4.780;2023-03-01T08:03:29;4.00;79.60
15930;DHT22;8064;51.142;4.780;2023-03-01T08:05:55;4.20;79.50
15930;DHT22;8064;51.142;4.780;2023-03-01T08:08:21;4.30;79.10
15930;DHT22;8064;51.142;4.780;2023-03-01T08:10:46;4.40;78.70
15930;DHT22;8064;51.142;4.780;2023-03-01T08:13:12;4.60;78.50
15930;DHT22;8064;51.142;4.780;2023-03-01T08:15:38;4.80;78.50
15930;DHT22;8064;51.142;4.780;2023-03-01T08:18:04;5.00;78.60
15930;DHT22;8064;51.142;4.780;2023-03-01T08:20:29;5.10;77.80
15930;DHT22;8064;51.142;4.780;2023-03-01T08:22:57;5.30;78.30
15930;DHT22;8064;51.142;4.780;2023-03-01T08:25:23;5.50;77.30
15930;DHT22;8064;51.142;4.780;2023-03-01T08:27:48;5.70;77.10
15930;DHT22;8064;51.142;4.780;2023-03-01T08:30:14;5.90;76.60
15930;DHT22;8064;51.142;4.780;2023-03-01T08:32:40;6.10;76.10
15930;DHT22;8064;51.142;4.780;2023-03-01T08:35:07;6.30;75.50
15930;DHT22;8064;51.142;4.780;2023-03-01T08:37:34;6.50;75.30
15930;DHT22;8064;51.142;4.780;2023-03-01T08:40:01;6.70;74.80
15930;DHT22;8064;51.142;4.780;2023-03-01T08:42:29;6.80;74.30
15930;DHT22;8064;51.142;4.780;2023-03-01T08:44:54;6.90;74.70
15930;DHT22;8064;51.142;4.780;2023-03-01T08:47:22;7.00;73.30
15930;DHT22;8064;51.142;4.780;2023-03-01T08:49:50;7.10;73.00
15930;DHT22;8064;51.142;4.780;2023-03-01T08:52:16;7.20;72.90
15930;DHT22;8064;51.142;4.780;2023-03-01T08:54:42;7.30;72.80
15930;DHT22;8064;51.142;4.780;2023-03-01T08:57:08;7.50;72.50
15930;DHT22;8064;51.142;4.780;2023-03-01T08:59:35;7.70;72.20
15930;DHT22;8064;51.142;4.780;2023-03-01T09:02:04;7.90;71.90
15930;DHT22;8064;51.142;4.780;2023-03-01T09:04:30;8.00;71.10
15930;DHT22;8064;51.142;4.780;2023-03-01T09:06:56;8.20;70.70
15930;DHT22;8064;51.142;4.780;2023-03-01T09:09:22;8.40;70.40
15930;DHT22;8064;51.142;4.780;2023-03-01T09:11:47;8.50;69.90
15930;DHT22;8064;51.142;4.780;2023-03-01T09:14:15;8.70;69.30
15930;DHT22;8064;51.142;4.780;2023-03-01T09:16:42;8.80;68.70
15930;DHT22;8064;51.142;4.780;2023-03-01T09:19:09;8.90;68.50
15930;DHT22;8064;51.142;4.780;2023-03-01T09:21:34;9.10;67.90
15930;DHT22;8064;51.142;4.780;2023-03-01T09:24:00;9.20;67.40
15930;DHT22;8064;51.142;4.780;2023-03-01T09:26:26;9.40;67.30
15930;DHT22;8064;51.142;4.780;2023-03-01T09:28:54;9.50;66.60
15930;DHT22;8064;51.142;4.780;2023-03-01T09:31:22;9.70;65.80
15930;DHT22;8064;51.142;4.780;2023-03-01T09:33:50;9.80;65.50
15930;DHT22;8064;51.142;4.780;2023-03-01T09:36:18;9.90;65.40
15930;DHT22;8064;51.142;4.780;2023-03-01T09:38:44;10.00;63.70
15930;DHT22;8064;51.142;4.780;2023-03-01T09:41:30;10.20;63.70
15930;DHT22;8064;51.142;4.780;2023-03-01T09:44:04;10.70;62.40
15930;DHT22;8064;51.142;4.780;2023-03-01T09:46:40;11.70;59.90
15930;DHT22;8064;51.142;4.780;2023-03-01T09:49:14;13.60;55.60
15930;DHT22;8064;51.142;4.780;2023-03-01T09:51:47;16.00;50.80
15930;DHT22;8064;51.142;4.780;2023-03-01T09:54:18;18.40;46.70
15930;DHT22;8064;51.142;4.780;2023-03-01T09:56:52;20.60;43.40
15930;DHT22;8064;51.142;4.780;2023-03-01T09:59:25;22.20;41.20
15930;DHT22;8064;51.142;4.780;2023-03-01T10:04:49;25.10;37.30
15930;DHT22;8064;51.142;4.780;2023-03-01T10:10:37;27.30;34.80
15930;DHT22;8064;51.142;4.780;2023-03-01T10:13:14;28.30;34.00
15930;DHT22;8064;51.142;4.780;2023-03-01T10:15:47;29.10;33.00
15930;DHT22;8064;51.142;4.780;2023-03-01T10:18:18;29.90;32.50
15930;DHT22;8064;51.142;4.780;2023-03-01T10:20:53;30.70;31.40
15930;DHT22;8064;51.142;4.780;2023-03-01T10:23:20;31.50;30.00
15930;DHT22;8064;51.142;4.780;2023-03-01T10:29:06;32.70;28.30
15930;DHT22;8064;51.142;4.780;2023-03-01T10:31:52;33.30;28.70
15930;DHT22;8064;51.142;4.780;2023-03-01T10:34:29;33.90;27.80
15930;DHT22;8064;51.142;4.780;2023-03-01T10:40:01;34.90;27.20
15930;DHT22;8064;51.142;4.780;2023-03-01T10:42:36;35.30;26.30
15930;DHT22;8064;51.142;4.780;2023-03-01T10:51:07;36.60;25.80
15930;DHT22;8064;51.142;4.780;2023-03-01T10:53:52;37.00;25.00
15930;DHT22;8064;51.142;4.780;2023-03-01T10:56:18;37.40;24.50
15930;DHT22;8064;51.142;4.780;2023-03-01T10:59:09;37.60;24.70
15930;DHT22;8064;51.142;4.780;2023-03-01T11:01:44;37.70;23.80
15930;DHT22;8064;51.142;4.780;2023-03-01T11:04:12;37.90;24.30
15930;DHT22;8064;51.142;4.780;2023-03-01T11:06:40;37.90;23.90
15930;DHT22;8064;51.142;4.780;2023-03-01T11:09:16;38.10;23.90
15930;DHT22;8064;51.142;4.780;2023-03-01T11:11:43;38.20;23.20
15930;DHT22;8064;51.142;4.780;2023-03-01T11:14:26;38.20;23.50
15930;DHT22;8064;51.142;4.780;2023-03-01T11:17:10;38.10;22.80
15930;DHT22;8064;51.142;4.780;2023-03-01T11:19:38;37.80;22.80
15930;DHT22;8064;51.142;4.780;2023-03-01T11:22:21;37.50;23.40
15930;DHT22;8064;51.142;4.780;2023-03-01T11:24:50;37.10;22.60
15930;DHT22;8064;51.142;4.780;2023-03-01T11:27:31;36.60;23.20
15930;DHT22;8064;51.142;4.780;2023-03-01T11:30:35;35.90;23.30
15930;DHT22;8064;51.142;4.780;2023-03-01T11:33:33;34.80;23.60
15930;DHT22;8064;51.142;4.780;2023-03-01T11:38:39;31.90;24.90
15930;DHT22;8064;51.142;4.780;2023-03-01T11:43:55;28.90;26.80
15930;DHT22;8064;51.142;4.780;2023-03-01T11:52:30;24.00;29.10
15930;DHT22;8064;51.142;4.780;2023-03-01T12:01:15;19.80;32.40
15930;DHT22;8064;51.142;4.780;2023-03-01T12:09:53;17.50;34.80
15930;DHT22;8064;51.142;4.780;2023-03-01T12:12:34;17.00;35.50
15930;DHT22;8064;51.142;4.780;2023-03-01T12:39:07;14.00;39.20
15930;DHT22;8064;51.142;4.780;2023-03-01T12:44:30;13.80;40.00
15930;DHT22;8064;51.142;4.780;2023-03-01T12:47:13;13.70;40.10
15930;DHT22;8064;51.142;4.780;2023-03-01T12:49:48;13.60;40.40
15930;DHT22;8064;51.142;4.780;2023-03-01T12:52:27;13.60;40.70
15930;DHT22;8064;51.142;4.780;2023-03-01T12:54:57;13.60;41.60
15930;DHT22;8064;51.142;4.780;2023-03-01T13:11:34;12.90;41.90
15930;DHT22;8064;51.142;4.780;2023-03-01T13:16:46;12.80;42.60
15930;DHT22;8064;51.142;4.780;2023-03-01T13:19:33;12.70;42.60
15930;DHT22;8064;51.142;4.780;2023-03-01T13:25:22;12.60;42.70
15930;DHT22;8064;51.142;4.780;2023-03-01T13:27:48;12.40;42.80
15930;DHT22;8064;51.142;4.780;2023-03-01T13:36:04;12.30;43.30
15930;DHT22;8064;51.142;4.780;2023-03-01T13:49:57;12.30;43.30
15930;DHT22;8064;51.142;4.780;2023-03-01T13:52:40;12.30;43.60
15930;DHT22;8064;51.142;4.780;2023-03-01T13:55:18;12.40;43.70
15930;DHT22;8064;51.142;4.780;2023-03-01T13:58:04;12.40;43.70
15930;DHT22;8064;51.142;4.780;2023-03-01T14:00:39;12.50;43.90
15930;DHT22;8064;51.142;4.780;2023-03-01T14:06:05;12.60;43.60
15930;DHT22;8064;51.142;4.780;2023-03-01T14:08:35;12.60;43.70
15930;DHT22;8064;51.142;4.780;2023-03-01T14:14:10;12.50;43.90
15930;DHT22;8064;51.142;4.780;2023-03-01T14:19:30;12.50;44.10
15930;DHT22;8064;51.142;4.780;2023-03-01T14:22:26;12.50;44.30
15930;DHT22;8064;51.142;4.780;2023-03-01T14:24:57;12.60;44.50
15930;DHT22;8064;51.142;4.780;2023-03-01T14:27:26;12.60;44.50
15930;DHT22;8064;51.142;4.780;2023-03-01T14:29:57;12.60;44.60
15930;DHT22;8064;51.142;4.780;2023-03-01T14:32:27;12.50;44.60
15930;DHT22;8064;51.142;4.780;2023-03-01T14:34:54;12.50;44.80
15930;DHT22;8064;51.142;4.780;2023-03-01T14:37:26;12.50;44.90
15930;DHT22;8064;51.142;4.780;2023-03-01T14:39:54;12.50;44.70
15930;DHT22;8064;51.142;4.780;2023-03-01T14:42:22;12.40;44.70
15930;DHT22;8064;51.142;4.780;2023-03-01T14:44:50;12.40;44.70
15930;DHT22;8064;51.142;4.780;2023-03-01T14:47:36;12.40;44.90
15930;DHT22;8064;51.142;4.780;2023-03-01T14:50:07;12.30;45.10
15930;DHT22;8064;51.142;4.780;2023-03-01T14:52:37;12.30;45.20
15930;DHT22;8064;51.142;4.780;2023-03-01T14:55:09;12.30;45.10
15930;DHT22;8064;51.142;4.780;2023-03-01T14:57:43;12.20;45.00
15930;DHT22;8064;51.142;4.780;2023-03-01T15:00:16;12.20;45.10
15930;DHT22;8064;51.142;4.780;2023-03-01T15:02:43;12.10;44.90
15930;DHT22;8064;51.142;4.780;2023-03-01T15:05:09;12.00;44.90
15930;DHT22;8064;51.142;4.780;2023-03-01T15:07:39;11.90;45.10
15930;DHT22;8064;51.142;4.780;2023-03-01T15:10:12;11.80;45.30
15930;DHT22;8064;51.142;4.780;2023-03-01T15:12:41;11.70;45.40
15930;DHT22;8064;51.142;4.780;2023-03-01T15:18:26;11.60;45.40
15930;DHT22;8064;51.142;4.780;2023-03-01T15:20:53;11.50;45.40
15930;DHT22;8064;51.142;4.780;2023-03-01T15:23:34;11.60;45.60
15930;DHT22;8064;51.142;4.780;2023-03-01T15:26:01;11.50;45.40
15930;DHT22;8064;51.142;4.780;2023-03-01T15:28:33;11.40;45.50
15930;DHT22;8064;51.142;4.780;2023-03-01T15:31:04;11.30;45.60
15930;DHT22;8064;51.142;4.780;2023-03-01T15:33:34;11.20;45.50
15930;DHT22;8064;51.142;4.780;2023-03-01T15:36:03;11.20;45.80
15930;DHT22;8064;51.142;4.780;2023-03-01T15:38:31;11.10;45.90
15930;DHT22;8064;51.142;4.780;2023-03-01T15:41:00;11.10;45.90
15930;DHT22;8064;51.142;4.780;2023-03-01T15:48:52;10.90;46.10
15930;DHT22;8064;51.142;4.780;2023-03-01T15:51:26;10.80;46.10
15930;DHT22;8064;51.142;4.780;2023-03-01T15:53:53;10.80;46.30
15930;DHT22;8064;51.142;4.780;2023-03-01T15:56:19;10.70;46.30
15930;DHT22;8064;51.142;4.780;2023-03-01T15:58:45;10.70;46.30
15930;DHT22;8064;51.142;4.780;2023-03-01T16:01:14;10.60;46.50
15930;DHT22;8064;51.142;4.780;2023-03-01T16:03:40;10.40;46.60
15930;DHT22;8064;51.142;4.780;2023-03-01T16:06:07;10.40;46.80
15930;DHT22;8064;51.142;4.780;2023-03-01T16:08:33;10.30;46.90
15930;DHT22;8064;51.142;4.780;2023-03-01T16:10:59;10.20;47.10
15930;DHT22;8064;51.142;4.780;2023-03-01T16:13:28;10.20;47.20
15930;DHT22;8064;51.142;4.780;2023-03-01T16:15:54;10.10;47.30
15930;DHT22;8064;51.142;4.780;2023-03-01T16:18:20;10.10;47.40
15930;DHT22;8064;51.142;4.780;2023-03-01T16:20:46;10.00;47.40
15930;DHT22;8064;51.142;4.780;2023-03-01T16:23:14;9.90;48.40
15930;DHT22;8064;51.142;4.780;2023-03-01T16:25:40;9.80;48.50
15930;DHT22;8064;51.142;4.780;2023-03-01T16:28:06;9.70;48.70
15930;DHT22;8064;51.142;4.780;2023-03-01T16:30:46;9.70;48.90
15930;DHT22;8064;51.142;4.780;2023-03-01T16:33:14;9.60;48.90
15930;DHT22;8064;51.142;4.780;2023-03-01T16:35:40;9.60;49.10
15930;DHT22;8064;51.142;4.780;2023-03-01T16:38:06;9.50;49.30
15930;DHT22;8064;51.142;4.780;2023-03-01T16:40:31;9.50;49.40
15930;DHT22;8064;51.142;4.780;2023-03-01T16:42:58;9.40;49.50
15930;DHT22;8064;51.142;4.780;2023-03-01T16:45:28;9.30;49.60
15930;DHT22;8064;51.142;4.780;2023-03-01T16:47:54;9.30;49.80
15930;DHT22;8064;51.142;4.780;2023-03-01T16:50:20;9.20;49.90
15930;DHT22;8064;51.142;4.780;2023-03-01T16:52:46;9.10;50.00
15930;DHT22;8064;51.142;4.780;2023-03-01T16:55:11;9.10;50.20
15930;DHT22;8064;51.142;4.780;2023-03-01T16:57:38;9.00;50.40
15930;DHT22;8064;51.142;4.780;2023-03-01T17:00:05;9.00;50.50
15930;DHT22;8064;51.142;4.780;2023-03-01T17:02:33;8.90;50.60
15930;DHT22;8064;51.142;4.780;2023-03-01T17:04:59;8.90;50.80
15930;DHT22;8064;51.142;4.780;2023-03-01T17:07:25;8.80;50.90
15930;DHT22;8064;51.142;4.780;2023-03-01T17:09:51;8.70;51.00
15930;DHT22;8064;51.142;4.780;2023-03-01T17:12:17;8.70;51.10
15930;DHT22;8064;51.142;4.780;2023-03-01T17:14:43;8.60;51.20
15930;DHT22;8064;51.142;4.780;2023-03-01T17:17:10;8.60;51.50
15930;DHT22;8064;51.142;4.780;2023-03-01T17:19:36;8.50;51.50
15930;DHT22;8064;51.142;4.780;2023-03-01T17:22:07;8.50;51.70
15930;DHT22;8064;51.142;4.780;2023-03-01T17:24:34;8.40;51.70
15930;DHT22;8064;51.142;4.780;2023-03-01T17:27:01;8.40;51.90
15930;DHT22;8064;51.142;4.780;2023-03-01T17:29:26;8.30;52.00
15930;DHT22;8064;51.142;4.780;2023-03-01T17:31:52;8.20;52.10
15930;DHT22;8064;51.142;4.780;2023-03-01T17:34:21;8.10;52.20
15930;DHT22;8064;51.142;4.780;2023-03-01T17:36:47;8.10;52.40
15930;DHT22;8064;51.142;4.780;2023-03-01T17:39:15;8.00;52.50
15930;DHT22;8064;51.142;4.780;2023-03-01T17:41:42;7.90;52.60
15930;DHT22;8064;51.142;4.780;2023-03-01T17:44:07;7.90;52.70
15930;DHT22;8064;51.142;4.780;2023-03-01T17:46:34;7.90;53.00
15930;DHT22;8064;51.142;4.780;2023-03-01T17:49:00;7.80;53.10
15930;DHT22;8064;51.142;4.780;2023-03-01T17:51:26;7.70;53.20
15930;DHT22;8064;51.142;4.780;2023-03-01T17:53:52;7.70;53.30
15930;DHT22;8064;51.142;4.780;2023-03-01T17:56:17;7.70;53.50
15930;DHT22;8064;51.142;4.780;2023-03-01T17:58:43;7.60;53.50
15930;DHT22;8064;51.142;4.780;2023-03-01T18:01:12;7.50;53.60
15930;DHT22;8064;51.142;4.780;2023-03-01T18:03:40;7.50;53.80
15930;DHT22;8064;51.142;4.780;2023-03-01T18:06:25;7.40;53.90
15930;DHT22;8064;51.142;4.780;2023-03-01T18:08:52;7.40;54.30
15930;DHT22;8064;51.142;4.780;2023-03-01T18:11:21;7.30;54.20
15930;DHT22;8064;51.142;4.780;2023-03-01T18:13:47;7.30;54.30
15930;DHT22;8064;51.142;4.780;2023-03-01T18:16:15;7.20;54.40
15930;DHT22;8064;51.142;4.780;2023-03-01T18:18:42;7.20;54.50